sensor_id;sensor_type;location;lat;lon;timestamp;P1;durP1;ratioP1;P2;durP2;ratioP2
11279;SDS011;5696;50.928;6.960;2022-12-18T06:36:29;21.33;;;15.18;;
11279;SDS011;5696;50.928;6.960;2022-12-18T06:38:56;21.10;;;16.15;;
11279;SDS011;5696;50.928;6.960;2022-12-18T06:41:22;21.42;;;15.85;;
11279;SDS011;5696;50.928;6.960;2022-12-18T06:43:48;21.10;;;16.10;;
11279;SDS011;5696;50.928;6.960;2022-12-18T06:46:13;20.88;;;15.82;;
11279;SDS011;5696;50.928;6.960;2022-12-18T06:48:39;21.15;;;16.10;;
11279;SDS011;5696;50.928;6.960;2022-12-18T06:51:05;21.70;;;16.05;;
11279;SDS011;5696;50.928;6.960;2022-12-18T06:53:31;24.50;;;18.88;;
11279;SDS011;5696;50.928;6.960;2022-12-18T06:56:04;21.73;;;17.15;;
11279;SDS011;5696;50.928;6.960;2022-12-18T06:58:31;23.90;;;17.00;;
11279;SDS011;5696;50.928;6.960;2022-12-18T07:01:00;23.17;;;17.67;;
11279;SDS011;5696;50.928;6.960;2022-12-18T07:03:27;26.25;;;17.40;;
11279;SDS011;5696;50.928;6.960;2022-12-18T07:05:53;24.25;;;16.90;;
11279;SDS011;5696;50.928;6.960;2022-12-18T07:08:18;24.83;;;16.50;;
11279;SDS011;5696;50.928;6.960;2022-12-18T07:10:44;22.95;;;17.13;;
11279;SDS011;5696;50.928;6.960;2022-12-18T07:13:10;23.80;;;16.75;;
11279;SDS011;5696;50.928;6.960;2022-12-18T07:15:36;24.45;;;17.08;;
11279;SDS011;5696;50.928;6.960;2022-12-18T07:18:01;23.17;;;16.80;;
11279;SDS011;5696;50.928;6.960;2022-12-18T07:20:27;22.65;;;15.70;;
11279;SDS011;5696;50.928;6.960;2022-12-18T07:22:53;22.15;;;17.33;;
11279;SDS011;5696;50.928;6.960;2022-12-18T07:25:18;23.98;;;16.63;;
11279;SDS011;5696;50.928;6.960;2022-12-18T07:27:44;23.13;;;17.42;;
11279;SDS011;5696;50.928;6.960;2022-12-18T07:30:10;24.73;;;17.50;;
11279;SDS011;5696;50.928;6.960;2022-12-18T07:32:36;26.05;;;17.35;;
11279;SDS011;5696;50.928;6.960;2022-12-18T07:35:01;25.55;;;17.90;;
11279;SDS011;5696;50.928;6.960;2022-12-18T07:37:27;24.63;;;17.67;;
11279;SDS011;5696;50.928;6.960;2022-12-18T07:39:53;26.48;;;18.00;;
11279;SDS011;5696;50.928;6.960;2022-12-18T07:42:18;25.60;;;17.23;;
11279;SDS011;5696;50.928;6.960;2022-12-18T07:44:56;23.10;;;16.85;;
11279;SDS011;5696;50.928;6.960;2022-12-18T07:47:22;23.50;;;17.58;;
11279;SDS011;5696;50.928;6.960;2022-12-18T07:49:48;22.98;;;17.42;;
11279;SDS011;5696;50.928;6.960;2022-12-18T07:52:14;21.52;;;16.42;;
11279;SDS011;5696;50.928;6.960;2022-12-18T07:54:40;25.23;;;16.83;;
11279;SDS011;5696;50.928;6.960;2022-12-18T07:57:06;23.63;;;17.13;;
11279;SDS011;5696;50.928;6.960;2022-12-18T07:59:32;21.83;;;15.73;;
11279;SDS011;5696;50.928;6.960;2022-12-18T08:01:57;22.60;;;16.23;;
11279;SDS011;5696;50.928;6.960;2022-12-18T08:04:23;24.77;;;16.95;;
11279;SDS011;5696;50.928;6.960;2022-12-18T08:06:50;22.60;;;16.77;;
11279;SDS011;5696;50.928;6.960;2022-12-18T08:09:15;22.13;;;16.33;;
11279;SDS011;5696;50.928;6.960;2022-12-18T08:11:41;24.90;;;17.65;;
11279;SDS011;5696;50.928;6.960;2022-12-18T08:14:07;22.17;;;16.27;;
11279;SDS011;5696;50.928;6.960;2022-12-18T08:16:33;26.80;;;17.33;;
11279;SDS011;5696;50.928;6.960;2022-12-18T08:18:58;21.17;;;16.45;;
11279;SDS011;5696;50.928;6.960;2022-12-18T08:21:25;22.20;;;16.88;;
11279;SDS011;5696;50.928;6.960;2022-12-18T08:23:52;22.00;;;16.42;;
11279;SDS011;5696;50.928;6.960;2022-12-18T08:26:20;21.63;;;16.02;;
11279;SDS011;5696;50.928;6.960;2022-12-18T08:28:46;21.98;;;15.77;;
11279;SDS011;5696;50.928;6.960;2022-12-18T08:31:12;21.05;;;15.57;;
11279;SDS011;5696;50.928;6.960;2022-12-18T08:33:38;24.08;;;16.23;;
11279;SDS011;5696;50.928;6.960;2022-12-18T08:36:05;21.60;;;15.75;;
11279;SDS011;5696;50.928;6.960;2022-12-18T08:38:34;21.77;;;16.27;;
11279;SDS011;5696;50.928;6.960;2022-12-18T08:41:00;21.13;;;15.60;;
11279;SDS011;5696;50.928;6.960;2022-12-18T08:43:27;21.65;;;15.75;;
11279;SDS011;5696;50.928;6.960;2022-12-18T08:46:11;23.02;;;15.93;;
11279;SDS011;5696;50.928;6.960;2022-12-18T08:48:37;22.55;;;16.33;;
11279;SDS011;5696;50.928;6.960;2022-12-18T08:51:03;20.85;;;15.80;;
11279;SDS011;5696;50.928;6.960;2022-12-18T08:53:28;22.52;;;16.50;;
11279;SDS011;5696;50.928;6.960;2022-12-18T08:55:55;19.77;;;15.15;;
11279;SDS011;5696;50.928;6.960;2022-12-18T08:58:22;19.65;;;14.82;;
11279;SDS011;5696;50.928;6.960;2022-12-18T09:00:47;19.38;;;14.45;;
11279;SDS011;5696;50.928;6.960;2022-12-18T09:03:17;19.85;;;15.32;;
11279;SDS011;5696;50.928;6.960;2022-12-18T09:05:43;19.63;;;15.65;;
11279;SDS011;5696;50.928;6.960;2022-12-18T09:08:11;18.73;;;14.13;;
11279;SDS011;5696;50.928;6.960;2022-12-18T09:10:43;20.97;;;15.87;;
11279;SDS011;5696;50.928;6.960;2022-12-18T09:13:10;18.48;;;14.60;;
11279;SDS011;5696;50.928;6.960;2022-12-18T09:15:40;19.58;;;13.75;;
11279;SDS011;5696;50.928;6.960;2022-12-18T09:18:10;17.38;;;13.63;;
11279;SDS011;5696;50.928;6.960;2022-12-18T09:20:36;18.08;;;13.82;;
11279;SDS011;5696;50.928;6.960;2022-12-18T09:23:03;17.98;;;13.40;;
11279;SDS011;5696;50.928;6.960;2022-12-18T09:25:29;15.23;;;12.48;;
11279;SDS011;5696;50.928;6.960;2022-12-18T09:28:02;17.55;;;12.55;;
11279;SDS011;5696;50.928;6.960;2022-12-18T09:30:29;18.90;;;13.07;;
11279;SDS011;5696;50.928;6.960;2022-12-18T09:32:55;15.38;;;12.13;;
11279;SDS011;5696;50.928;6.960;2022-12-18T09:35:21;18.60;;;13.15;;
11279;SDS011;5696;50.928;6.960;2022-12-18T09:37:46;18.33;;;13.27;;
11279;SDS011;5696;50.928;6.960;2022-12-18T09:40:14;17.90;;;13.20;;
11279;SDS011;5696;50.928;6.960;2022-12-18T09:42:43;17.25;;;13.07;;
11279;SDS011;5696;50.928;6.960;2022-12-18T09:45:13;18.38;;;14.07;;
11279;SDS011;5696;50.928;6.960;2022-12-18T09:47:40;16.70;;;12.85;;
11279;SDS011;5696;50.928;6.960;2022-12-18T09:52:52;16.35;;;13.43;;
11279;SDS011;5696;50.928;6.960;2022-12-18T10:01:24;17.65;;;13.60;;
11279;SDS011;5696;50.928;6.960;2022-12-18T10:03:51;18.58;;;13.85;;
11279;SDS011;5696;50.928;6.960;2022-12-18T10:06:21;18.30;;;13.52;;
11279;SDS011;5696;50.928;6.960;2022-12-18T10:11:34;15.48;;;12.82;;
11279;SDS011;5696;50.928;6.960;2022-12-18T10:14:09;19.27;;;13.10;;
11279;SDS011;5696;50.928;6.960;2022-12-18T10:16:51;17.17;;;12.77;;
11279;SDS011;5696;50.928;6.960;2022-12-18T10:24:44;17.00;;;12.93;;
11279;SDS011;5696;50.928;6.960;2022-12-18T10:27:13;17.60;;;13.05;;
11279;SDS011;5696;50.928;6.960;2022-12-18T10:29:46;17.27;;;13.40;;
11279;SDS011;5696;50.928;6.960;2022-12-18T10:32:16;17.95;;;12.52;;
11279;SDS011;5696;50.928;6.960;2022-12-18T10:34:48;17.27;;;13.70;;
11279;SDS011;5696;50.928;6.960;2022-12-18T10:37:15;16.92;;;12.88;;
11279;SDS011;5696;50.928;6.960;2022-12-18T10:39:43;17.10;;;12.93;;
11279;SDS011;5696;50.928;6.960;2022-12-18T10:42:10;18.17;;;12.55;;
11279;SDS011;5696;50.928;6.960;2022-12-18T10:44:40;17.15;;;12.25;;
11279;SDS011;5696;50.928;6.960;2022-12-18T10:47:09;15.27;;;12.25;;
11279;SDS011;5696;50.928;6.960;2022-12-18T10:49:52;15.10;;;12.02;;
11279;SDS011;5696;50.928;6.960;2022-12-18T10:52:27;15.15;;;12.25;;
11279;SDS011;5696;50.928;6.960;2022-12-18T10:54:57;16.20;;;12.20;;
11279;SDS011;5696;50.928;6.960;2022-12-18T10:57:33;14.82;;;12.05;;
11279;SDS011;5696;50.928;6.960;2022-12-18T11:02:58;16.13;;;12.13;;
11279;SDS011;5696;50.928;6.960;2022-12-18T11:07:57;17.30;;;12.55;;
11279;SDS011;5696;50.928;6.960;2022-12-18T11:10:31;17.50;;;12.93;;
11279;SDS011;5696;50.928;6.960;2022-12-18T11:13:18;17.75;;;12.57;;
11279;SDS011;5696;50.928;6.960;2022-12-18T11:15:46;16.77;;;12.57;;
11279;SDS011;5696;50.928;6.960;2022-12-18T11:18:20;20.45;;;14.02;;
11279;SDS011;5696;50.928;6.960;2022-12-18T11:20:56;16.27;;;12.75;;
11279;SDS011;5696;50.928;6.960;2022-12-18T11:23:24;15.68;;;11.75;;
11279;SDS011;5696;50.928;6.960;2022-12-18T11:25:51;16.60;;;12.95;;
11279;SDS011;5696;50.928;6.960;2022-12-18T11:31:22;17.42;;;12.27;;
11279;SDS011;5696;50.928;6.960;2022-12-18T11:37:10;17.58;;;12.90;;
11279;SDS011;5696;50.928;6.960;2022-12-18T11:39:40;16.80;;;13.13;;
11279;SDS011;5696;50.928;6.960;2022-12-18T11:44:51;20.38;;;13.10;;
11279;SDS011;5696;50.928;6.960;2022-12-18T11:47:49;17.88;;;13.85;;
11279;SDS011;5696;50.928;6.960;2022-12-18T11:50:30;19.55;;;12.80;;
11279;SDS011;5696;50.928;6.960;2022-12-18T11:53:11;19.67;;;13.30;;
11279;SDS011;5696;50.928;6.960;2022-12-18T11:58:37;19.23;;;13.32;;
11279;SDS011;5696;50.928;6.960;2022-12-18T12:04:43;19.50;;;14.10;;
11279;SDS011;5696;50.928;6.960;2022-12-18T12:07:48;19.67;;;13.18;;
11279;SDS011;5696;50.928;6.960;2022-12-18T12:18:34;19.05;;;14.25;;
11279;SDS011;5696;50.928;6.960;2022-12-18T12:26:57;18.85;;;14.25;;
11279;SDS011;5696;50.928;6.960;2022-12-18T12:29:55;18.33;;;13.88;;
11279;SDS011;5696;50.928;6.960;2022-12-18T12:35:17;20.00;;;14.43;;
11279;SDS011;5696;50.928;6.960;2022-12-18T12:38:05;23.00;;;16.88;;
11279;SDS011;5696;50.928;6.960;2022-12-18T12:40:48;20.02;;;13.82;;
11279;SDS011;5696;50.928;6.960;2022-12-18T12:43:30;18.63;;;14.63;;
11279;SDS011;5696;50.928;6.960;2022-12-18T12:46:12;20.95;;;15.50;;
11279;SDS011;5696;50.928;6.960;2022-12-18T12:48:48;19.20;;;14.48;;
11279;SDS011;5696;50.928;6.960;2022-12-18T12:53:53;20.90;;;15.10;;
11279;SDS011;5696;50.928;6.960;2022-12-18T12:56:21;20.10;;;14.52;;
11279;SDS011;5696;50.928;6.960;2022-12-18T13:01:39;23.08;;;16.30;;
11279;SDS011;5696;50.928;6.960;2022-12-18T13:04:37;18.83;;;14.32;;
11279;SDS011;5696;50.928;6.960;2022-12-18T13:07:15;21.38;;;14.77;;
11279;SDS011;5696;50.928;6.960;2022-12-18T13:15:43;19.30;;;14.82;;
11279;SDS011;5696;50.928;6.960;2022-12-18T13:20:50;21.23;;;15.77;;
11279;SDS011;5696;50.928;6.960;2022-12-18T13:23:35;21.25;;;15.48;;
11279;SDS011;5696;50.928;6.960;2022-12-18T13:31:14;23.17;;;15.73;;
11279;SDS011;5696;50.928;6.960;2022-12-18T13:33:59;22.17;;;15.18;;
11279;SDS011;5696;50.928;6.960;2022-12-18T13:36:37;21.73;;;15.27;;
11279;SDS011;5696;50.928;6.960;2022-12-18T13:41:46;23.58;;;16.10;;
11279;SDS011;5696;50.928;6.960;2022-12-18T13:44:33;20.48;;;15.32;;
11279;SDS011;5696;50.928;6.960;2022-12-18T13:47:05;22.88;;;15.95;;
11279;SDS011;5696;50.928;6.960;2022-12-18T13:49:49;24.20;;;15.90;;
11279;SDS011;5696;50.928;6.960;2022-12-18T13:52:17;21.40;;;15.70;;
11279;SDS011;5696;50.928;6.960;2022-12-18T13:54:50;22.10;;;15.65;;
11279;SDS011;5696;50.928;6.960;2022-12-18T13:59:53;25.00;;;16.83;;
11279;SDS011;5696;50.928;6.960;2022-12-18T14:02:21;23.15;;;16.42;;
11279;SDS011;5696;50.928;6.960;2022-12-18T14:04:52;21.35;;;15.60;;
11279;SDS011;5696;50.928;6.960;2022-12-18T14:07:19;23.45;;;17.10;;
11279;SDS011;5696;50.928;6.960;2022-12-18T14:09:52;22.88;;;16.98;;
11279;SDS011;5696;50.928;6.960;2022-12-18T14:12:26;28.00;;;16.73;;
11279;SDS011;5696;50.928;6.960;2022-12-18T14:17:54;22.80;;;16.15;;
11279;SDS011;5696;50.928;6.960;2022-12-18T14:20:24;22.00;;;16.27;;
11279;SDS011;5696;50.928;6.960;2022-12-18T14:22:51;21.83;;;15.90;;
11279;SDS011;5696;50.928;6.960;2022-12-18T14:27:45;21.73;;;16.50;;
11279;SDS011;5696;50.928;6.960;2022-12-18T14:30:30;23.90;;;16.52;;
11279;SDS011;5696;50.928;6.960;2022-12-18T14:35:36;23.73;;;17.13;;
11279;SDS011;5696;50.928;6.960;2022-12-18T14:38:10;22.08;;;15.90;;
11279;SDS011;5696;50.928;6.960;2022-12-18T14:40:43;24.42;;;17.52;;
11279;SDS011;5696;50.928;6.960;2022-12-18T14:43:10;22.67;;;16.83;;
11279;SDS011;5696;50.928;6.960;2022-12-18T14:45:42;22.77;;;17.23;;
11279;SDS011;5696;50.928;6.960;2022-12-18T14:48:11;24.70;;;17.65;;
11279;SDS011;5696;50.928;6.960;2022-12-18T14:50:39;23.45;;;17.88;;
11279;SDS011;5696;50.928;6.960;2022-12-18T14:53:04;33.03;;;17.75;;
11279;SDS011;5696;50.928;6.960;2022-12-18T14:55:30;26.65;;;18.45;;
11279;SDS011;5696;50.928;6.960;2022-12-18T14:57:56;27.55;;;18.98;;
11279;SDS011;5696;50.928;6.960;2022-12-18T15:00:23;24.15;;;18.48;;
11279;SDS011;5696;50.928;6.960;2022-12-18T15:02:52;27.80;;;19.17;;
11279;SDS011;5696;50.928;6.960;2022-12-18T15:05:20;26.13;;;18.15;;
11279;SDS011;5696;50.928;6.960;2022-12-18T15:07:51;27.60;;;18.27;;
11279;SDS011;5696;50.928;6.960;2022-12-18T15:10:22;26.73;;;18.80;;
11279;SDS011;5696;50.928;6.960;2022-12-18T15:18:00;23.15;;;18.02;;
11279;SDS011;5696;50.928;6.960;2022-12-18T15:20:32;24.50;;;17.40;;
11279;SDS011;5696;50.928;6.960;2022-12-18T15:23:12;23.98;;;18.08;;
11279;SDS011;5696;50.928;6.960;2022-12-18T15:25:44;24.23;;;18.75;;
11279;SDS011;5696;50.928;6.960;2022-12-18T15:33:42;26.33;;;18.00;;
11279;SDS011;5696;50.928;6.960;2022-12-18T15:36:14;25.48;;;18.10;;
11279;SDS011;5696;50.928;6.960;2022-12-18T15:38:41;25.63;;;18.40;;
11279;SDS011;5696;50.928;6.960;2022-12-18T15:41:15;24.55;;;18.42;;
11279;SDS011;5696;50.928;6.960;2022-12-18T15:43:43;26.55;;;19.30;;
11279;SDS011;5696;50.928;6.960;2022-12-18T15:46:13;25.17;;;19.63;;
11279;SDS011;5696;50.928;6.960;2022-12-18T15:48:47;24.17;;;18.33;;
11279;SDS011;5696;50.928;6.960;2022-12-18T15:51:32;26.75;;;19.17;;
11279;SDS011;5696;50.928;6.960;2022-12-18T15:54:01;26.15;;;19.55;;
11279;SDS011;5696;50.928;6.960;2022-12-18T15:56:29;27.95;;;20.58;;
11279;SDS011;5696;50.928;6.960;2022-12-18T15:59:14;25.95;;;18.80;;
11279;SDS011;5696;50.928;6.960;2022-12-18T16:01:46;26.35;;;19.27;;
11279;SDS011;5696;50.928;6.960;2022-12-18T16:04:14;29.75;;;21.00;;
11279;SDS011;5696;50.928;6.960;2022-12-18T16:06:41;27.83;;;20.08;;
11279;SDS011;5696;50.928;6.960;2022-12-18T16:09:07;27.90;;;19.92;;
11279;SDS011;5696;50.928;6.960;2022-12-18T16:11:34;27.75;;;20.70;;
11279;SDS011;5696;50.928;6.960;2022-12-18T16:14:24;30.02;;;21.63;;
11279;SDS011;5696;50.928;6.960;2022-12-18T16:16:52;27.77;;;20.33;;
11279;SDS011;5696;50.928;6.960;2022-12-18T16:19:23;28.55;;;20.55;;
11279;SDS011;5696;50.928;6.960;2022-12-18T16:21:49;27.65;;;19.25;;
11279;SDS011;5696;50.928;6.960;2022-12-18T16:24:16;26.30;;;19.45;;
11279;SDS011;5696;50.928;6.960;2022-12-18T16:26:43;28.85;;;20.92;;
11279;SDS011;5696;50.928;6.960;2022-12-18T16:29:09;28.02;;;20.90;;
11279;SDS011;5696;50.928;6.960;2022-12-18T16:31:35;28.80;;;20.40;;
11279;SDS011;5696;50.928;6.960;2022-12-18T16:34:18;26.73;;;20.20;;
11279;SDS011;5696;50.928;6.960;2022-12-18T16:36:48;30.63;;;20.98;;
11279;SDS011;5696;50.928;6.960;2022-12-18T16:39:14;27.42;;;20.05;;
11279;SDS011;5696;50.928;6.960;2022-12-18T16:41:39;25.60;;;19.50;;
11279;SDS011;5696;50.928;6.960;2022-12-18T16:44:05;28.58;;;21.20;;
11279;SDS011;5696;50.928;6.960;2022-12-18T16:46:31;28.08;;;21.38;;
11279;SDS011;5696;50.928;6.960;2022-12-18T16:48:57;27.10;;;20.13;;
11279;SDS011;5696;50.928;6.960;2022-12-18T16:51:23;28.98;;;20.90;;
11279;SDS011;5696;50.928;6.960;2022-12-18T16:53:49;28.77;;;20.85;;
11279;SDS011;5696;50.928;6.960;2022-12-18T16:56:15;29.00;;;20.17;;
11279;SDS011;5696;50.928;6.960;2022-12-18T16:58:41;30.15;;;22.00;;
11279;SDS011;5696;50.928;6.960;2022-12-18T17:01:09;30.17;;;22.38;;
11279;SDS011;5696;50.928;6.960;2022-12-18T17:03:36;30.60;;;20.83;;
11279;SDS011;5696;50.928;6.960;2022-12-18T17:06:04;30.00;;;22.02;;
11279;SDS011;5696;50.928;6.960;2022-12-18T17:08:31;31.08;;;23.08;;
11279;SDS011;5696;50.928;6.960;2022-12-18T17:11:02;28.88;;;21.15;;
11279;SDS011;5696;50.928;6.960;2022-12-18T17:13:30;30.20;;;21.25;;
11279;SDS011;5696;50.928;6.960;2022-12-18T17:16:00;30.05;;;22.15;;
11279;SDS011;5696;50.928;6.960;2022-12-18T17:18:33;30.27;;;22.20;;
11279;SDS011;5696;50.928;6.960;2022-12-18T17:20:59;30.75;;;21.40;;
11279;SDS011;5696;50.928;6.960;2022-12-18T17:23:25;28.95;;;21.15;;
11279;SDS011;5696;50.928;6.960;2022-12-18T17:25:55;30.25;;;22.10;;
11279;SDS011;5696;50.928;6.960;2022-12-18T17:28:22;32.17;;;22.50;;
11279;SDS011;5696;50.928;6.960;2022-12-18T17:30:50;31.23;;;22.25;;
11279;SDS011;5696;50.928;6.960;2022-12-18T17:33:16;32.40;;;22.90;;
11279;SDS011;5696;50.928;6.960;2022-12-18T17:35:42;33.08;;;22.42;;
11279;SDS011;5696;50.928;6.960;2022-12-18T17:38:08;32.58;;;22.58;;
11279;SDS011;5696;50.928;6.960;2022-12-18T17:40:34;31.42;;;21.80;;
11279;SDS011;5696;50.928;6.960;2022-12-18T17:43:00;31.60;;;21.17;;
11279;SDS011;5696;50.928;6.960;2022-12-18T17:45:26;30.23;;;21.90;;
11279;SDS011;5696;50.928;6.960;2022-12-18T17:47:52;31.63;;;22.42;;
11279;SDS011;5696;50.928;6.960;2022-12-18T17:50:18;32.67;;;23.80;;
11279;SDS011;5696;50.928;6.960;2022-12-18T17:52:44;32.45;;;23.15;;
11279;SDS011;5696;50.928;6.960;2022-12-18T17:55:09;32.85;;;22.88;;
11279;SDS011;5696;50.928;6.960;2022-12-18T17:57:35;30.80;;;22.52;;
11279;SDS011;5696;50.928;6.960;2022-12-18T18:00:01;33.65;;;24.27;;
11279;SDS011;5696;50.928;6.960;2022-12-18T18:02:28;32.05;;;22.75;;
11279;SDS011;5696;50.928;6.960;2022-12-18T18:04:54;34.00;;;23.27;;
11279;SDS011;5696;50.928;6.960;2022-12-18T18:07:19;34.97;;;23.95;;
11279;SDS011;5696;50.928;6.960;2022-12-18T18:09:45;33.47;;;24.00;;
11279;SDS011;5696;50.928;6.960;2022-12-18T18:12:11;33.95;;;23.98;;
11279;SDS011;5696;50.928;6.960;2022-12-18T18:14:55;33.03;;;23.20;;
11279;SDS011;5696;50.928;6.960;2022-12-18T18:17:21;36.80;;;24.23;;
11279;SDS011;5696;50.928;6.960;2022-12-18T18:19:47;34.75;;;23.85;;
11279;SDS011;5696;50.928;6.960;2022-12-18T18:22:15;33.42;;;23.15;;
11279;SDS011;5696;50.928;6.960;2022-12-18T18:24:42;35.40;;;23.05;;
11279;SDS011;5696;50.928;6.960;2022-12-18T18:27:08;35.80;;;24.48;;
11279;SDS011;5696;50.928;6.960;2022-12-18T18:29:34;37.08;;;23.67;;
11279;SDS011;5696;50.928;6.960;2022-12-18T18:32:00;32.67;;;23.25;;
11279;SDS011;5696;50.928;6.960;2022-12-18T18:34:27;36.13;;;23.88;;
11279;SDS011;5696;50.928;6.960;2022-12-18T18:36:54;35.88;;;24.75;;
11279;SDS011;5696;50.928;6.960;2022-12-18T18:39:20;33.95;;;23.52;;
11279;SDS011;5696;50.928;6.960;2022-12-18T18:41:45;34.70;;;24.05;;
11279;SDS011;5696;50.928;6.960;2022-12-18T18:44:11;33.97;;;24.02;;
11279;SDS011;5696;50.928;6.960;2022-12-18T18:46:37;35.60;;;23.35;;
11279;SDS011;5696;50.928;6.960;2022-12-18T18:49:03;35.35;;;24.15;;
11279;SDS011;5696;50.928;6.960;2022-12-18T18:51:29;34.38;;;23.92;;
11279;SDS011;5696;50.928;6.960;2022-12-18T18:53:55;34.90;;;24.10;;
11279;SDS011;5696;50.928;6.960;2022-12-18T18:56:22;40.03;;;23.67;;
11279;SDS011;5696;50.928;6.960;2022-12-18T18:58:48;34.53;;;24.13;;
11279;SDS011;5696;50.928;6.960;2022-12-18T19:01:15;34.40;;;24.17;;
11279;SDS011;5696;50.928;6.960;2022-12-18T19:03:42;33.17;;;23.85;;
11279;SDS011;5696;50.928;6.960;2022-12-18T19:06:09;37.78;;;24.88;;
11279;SDS011;5696;50.928;6.960;2022-12-18T19:08:38;34.45;;;23.52;;
11279;SDS011;5696;50.928;6.960;2022-12-18T19:11:05;38.42;;;24.67;;
11279;SDS011;5696;50.928;6.960;2022-12-18T19:13:53;34.60;;;22.80;;
11279;SDS011;5696;50.928;6.960;2022-12-18T19:16:20;32.38;;;22.92;;
11279;SDS011;5696;50.928;6.960;2022-12-18T19:18:46;34.70;;;23.73;;
11279;SDS011;5696;50.928;6.960;2022-12-18T19:21:12;33.35;;;21.75;;
11279;SDS011;5696;50.928;6.960;2022-12-18T19:23:37;33.78;;;23.58;;
11279;SDS011;5696;50.928;6.960;2022-12-18T19:26:04;37.53;;;23.65;;
11279;SDS011;5696;50.928;6.960;2022-12-18T19:28:34;37.30;;;23.83;;
11279;SDS011;5696;50.928;6.960;2022-12-18T19:31:04;33.50;;;22.63;;
11279;SDS011;5696;50.928;6.960;2022-12-18T19:33:35;36.10;;;23.40;;
11279;SDS011;5696;50.928;6.960;2022-12-18T19:36:24;34.33;;;23.83;;
11279;SDS011;5696;50.928;6.960;2022-12-18T19:38:49;32.00;;;22.13;;
11279;SDS011;5696;50.928;6.960;2022-12-18T19:41:16;34.80;;;23.02;;
11279;SDS011;5696;50.928;6.960;2022-12-18T19:43:42;33.85;;;24.55;;
11279;SDS011;5696;50.928;6.960;2022-12-18T19:46:09;34.97;;;23.50;;
11279;SDS011;5696;50.928;6.960;2022-12-18T19:48:38;35.72;;;23.50;;
11279;SDS011;5696;50.928;6.960;2022-12-18T19:51:08;35.05;;;23.40;;
11279;SDS011;5696;50.928;6.960;2022-12-18T19:53:42;33.17;;;22.92;;
11279;SDS011;5696;50.928;6.960;2022-12-18T19:56:09;38.17;;;24.70;;
11279;SDS011;5696;50.928;6.960;2022-12-18T19:58:37;34.88;;;23.50;;
11279;SDS011;5696;50.928;6.960;2022-12-18T20:01:04;40.35;;;25.27;;
11279;SDS011;5696;50.928;6.960;2022-12-18T20:03:30;40.33;;;26.25;;
11279;SDS011;5696;50.928;6.960;2022-12-18T20:08:55;36.63;;;23.02;;
11279;SDS011;5696;50.928;6.960;2022-12-18T20:11:22;36.40;;;23.77;;
11279;SDS011;5696;50.928;6.960;2022-12-18T20:13:48;34.35;;;23.10;;
11279;SDS011;5696;50.928;6.960;2022-12-18T20:16:14;31.63;;;22.70;;
11279;SDS011;5696;50.928;6.960;2022-12-18T20:18:40;33.70;;;23.20;;
11279;SDS011;5696;50.928;6.960;2022-12-18T20:21:05;38.25;;;24.13;;
11279;SDS011;5696;50.928;6.960;2022-12-18T20:23:31;38.05;;;24.70;;
11279;SDS011;5696;50.928;6.960;2022-12-18T20:25:57;35.50;;;24.17;;
11279;SDS011;5696;50.928;6.960;2022-12-18T20:28:23;37.78;;;23.98;;
11279;SDS011;5696;50.928;6.960;2022-12-18T20:30:49;36.50;;;24.27;;
11279;SDS011;5696;50.928;6.960;2022-12-18T20:33:15;33.22;;;23.38;;
11279;SDS011;5696;50.928;6.960;2022-12-18T20:35:41;36.22;;;24.27;;
11279;SDS011;5696;50.928;6.960;2022-12-18T20:38:07;58.58;;;38.53;;
11279;SDS011;5696;50.928;6.960;2022-12-18T20:40:33;35.45;;;22.83;;
11279;SDS011;5696;50.928;6.960;2022-12-18T20:42:58;36.40;;;23.58;;
11279;SDS011;5696;50.928;6.960;2022-12-18T20:45:26;35.10;;;22.77;;
11279;SDS011;5696;50.928;6.960;2022-12-18T20:47:53;32.65;;;21.17;;
11279;SDS011;5696;50.928;6.960;2022-12-18T20:50:19;35.67;;;23.42;;
11279;SDS011;5696;50.928;6.960;2022-12-18T20:52:46;35.55;;;23.95;;
11279;SDS011;5696;50.928;6.960;2022-12-18T20:55:11;34.88;;;22.95;;
11279;SDS011;5696;50.928;6.960;2022-12-18T20:57:37;34.85;;;22.77;;
11279;SDS011;5696;50.928;6.960;2022-12-18T21:00:03;35.30;;;23.60;;
11279;SDS011;5696;50.928;6.960;2022-12-18T21:02:30;138.80;;;77.72;;
11279;SDS011;5696;50.928;6.960;2022-12-18T21:04:55;115.45;;;69.03;;
11279;SDS011;5696;50.928;6.960;2022-12-18T21:07:21;48.35;;;30.08;;
11279;SDS011;5696;50.928;6.960;2022-12-18T21:09:46;36.78;;;23.35;;
11279;SDS011;5696;50.928;6.960;2022-12-18T21:12:13;34.47;;;23.33;;
11279;SDS011;5696;50.928;6.960;2022-12-18T21:15:01;31.60;;;21.90;;
11279;SDS011;5696;50.928;6.960;2022-12-18T21:17:27;33.50;;;22.50;;
11279;SDS011;5696;50.928;6.960;2022-12-18T21:19:53;35.28;;;22.55;;
11279;SDS011;5696;50.928;6.960;2022-12-18T21:22:19;34.28;;;23.23;;
11279;SDS011;5696;50.928;6.960;2022-12-18T21:24:45;36.22;;;23.58;;
11279;SDS011;5696;50.928;6.960;2022-12-18T21:27:11;35.17;;;23.20;;
11279;SDS011;5696;50.928;6.960;2022-12-18T21:29:36;33.47;;;22.90;;
11279;SDS011;5696;50.928;6.960;2022-12-18T21:32:03;34.40;;;22.45;;
11279;SDS011;5696;50.928;6.960;2022-12-18T21:34:29;34.92;;;23.42;;
11279;SDS011;5696;50.928;6.960;2022-12-18T21:36:57;35.85;;;24.13;;
11279;SDS011;5696;50.928;6.960;2022-12-18T21:39:23;32.53;;;23.48;;
11279;SDS011;5696;50.928;6.960;2022-12-18T21:41:50;35.13;;;22.83;;
11279;SDS011;5696;50.928;6.960;2022-12-18T21:44:35;37.00;;;23.83;;
11279;SDS011;5696;50.928;6.960;2022-12-18T21:47:01;36.65;;;22.92;;
11279;SDS011;5696;50.928;6.960;2022-12-18T21:49:26;38.47;;;25.00;;
11279;SDS011;5696;50.928;6.960;2022-12-18T21:51:53;34.72;;;23.75;;
11279;SDS011;5696;50.928;6.960;2022-12-18T21:54:20;39.05;;;24.90;;
11279;SDS011;5696;50.928;6.960;2022-12-18T21:56:56;54.65;;;35.53;;
11279;SDS011;5696;50.928;6.960;2022-12-18T21:59:30;45.05;;;29.05;;
11279;SDS011;5696;50.928;6.960;2022-12-18T22:01:59;38.45;;;24.83;;
11279;SDS011;5696;50.928;6.960;2022-12-18T22:04:27;39.05;;;25.70;;
11279;SDS011;5696;50.928;6.960;2022-12-18T22:06:53;40.42;;;26.42;;
11279;SDS011;5696;50.928;6.960;2022-12-18T22:09:20;40.90;;;25.65;;
11279;SDS011;5696;50.928;6.960;2022-12-18T22:11:47;39.17;;;26.05;;
11279;SDS011;5696;50.928;6.960;2022-12-18T22:14:13;42.30;;;26.80;;
11279;SDS011;5696;50.928;6.960;2022-12-18T22:16:40;39.90;;;26.40;;
11279;SDS011;5696;50.928;6.960;2022-12-18T22:19:06;49.50;;;34.00;;
11279;SDS011;5696;50.928;6.960;2022-12-18T22:21:34;41.60;;;28.20;;
11279;SDS011;5696;50.928;6.960;2022-12-18T22:24:02;47.45;;;30.63;;
11279;SDS011;5696;50.928;6.960;2022-12-18T22:26:30;45.88;;;28.65;;
11279;SDS011;5696;50.928;6.960;2022-12-18T22:28:59;54.22;;;35.97;;
11279;SDS011;5696;50.928;6.960;2022-12-18T22:31:43;69.72;;;43.28;;
11279;SDS011;5696;50.928;6.960;2022-12-18T22:34:08;44.60;;;28.98;;
11279;SDS011;5696;50.928;6.960;2022-12-18T22:36:44;37.72;;;23.70;;
11279;SDS011;5696;50.928;6.960;2022-12-18T22:39:15;65.70;;;42.13;;
11279;SDS011;5696;50.928;6.960;2022-12-18T22:41:43;47.13;;;31.27;;
11279;SDS011;5696;50.928;6.960;2022-12-18T22:44:09;100.10;;;61.00;;
11279;SDS011;5696;50.928;6.960;2022-12-18T22:46:37;50.67;;;31.10;;
11279;SDS011;5696;50.928;6.960;2022-12-18T22:49:10;46.05;;;29.33;;
11279;SDS011;5696;50.928;6.960;2022-12-18T22:51:37;45.60;;;29.88;;
11279;SDS011;5696;50.928;6.960;2022-12-18T22:54:03;48.03;;;30.40;;
11279;SDS011;5696;50.928;6.960;2022-12-18T22:56:28;66.78;;;42.13;;
11279;SDS011;5696;50.928;6.960;2022-12-18T22:58:54;44.92;;;27.60;;
11279;SDS011;5696;50.928;6.960;2022-12-18T23:01:21;44.40;;;28.33;;